Time;durP1;ratioP1;P1;durP2;ratioP2;P2;SDS_P1;SDS_P2;PMS_P1;PMS_P2;Temp;Humidity;BMP_temperature;BMP_pressure;BME280_temperature;BME280_humidity;BME280_pressure;Samples;Min_cycle;Max_cycle;Signal;HPM_P1;HPM_P2
2023/11/20 00:01:21;;;;;;;;;54.50;40.75;;;;;-143.90;100.00;75310.75;4962144;28;104137;-76
2023/11/20 00:03:48;;;;;;;;;47.25;39.25;;;;;-143.90;100.00;75312.81;4963929;28;102339;-76
2023/11/20 00:06:14;;;;;;;;;38.50;34.75;;;;;-143.90;100.00;75312.81;4960852;28;103158;-76
2023/11/20 00:08:41;;;;;;;;;29.00;27.50;;;;;-143.90;100.00;75319.00;4964653;28;102488;-76
2023/11/20 00:11:11;;;;;;;;;29.00;22.50;;;;;-143.90;100.00;75319.00;4962949;28;104040;-75
2023/11/20 00:13:38;;;;;;;;;31.00;22.75;;;;;-143.90;100.00;75316.94;4966102;28;101973;-75
2023/11/20 00:16:04;;;;;;;;;30.25;27.00;;;;;-143.90;100.00;75325.22;4965253;28;102458;-76
2023/11/20 00:18:31;;;;;;;;;30.50;23.25;;;;;-143.90;100.00;75319.00;4967765;28;102295;-76
2023/11/20 00:20:58;;;;;;;;;25.50;20.50;;;;;-143.90;100.00;75321.06;4966111;28;103871;-76
2023/11/20 00:23:25;;;;;;;;;19.25;17.75;;;;;-143.90;100.00;75325.22;4965605;28;102279;-76
2023/11/20 00:25:51;;;;;;;;;23.50;18.00;;;;;-143.90;100.00;75331.41;4965702;28;102098;-76
2023/11/20 00:28:18;;;;;;;;;17.00;16.00;;;;;-143.90;100.00;75331.41;4968818;28;102338;-76
2023/11/20 00:30:45;;;;;;;;;21.75;19.50;;;;;-143.90;100.00;75331.41;4965836;28;104209;-74
2023/11/20 00:33:12;;;;;;;;;26.00;18.00;;;;;-143.90;100.00;75335.53;4965037;28;102237;-76
2023/11/20 00:35:41;;;;;;;;;16.00;13.00;;;;;-143.90;100.00;75337.63;4962600;28;102244;-75
2023/11/20 00:38:08;;;;;;;;;26.75;23.00;;;;;-143.90;100.00;75341.75;4961891;28;103195;-76
2023/11/20 00:40:34;;;;;;;;;24.50;21.00;;;;;-143.90;100.00;75343.81;4964084;28;104145;-76
2023/11/20 00:43:01;;;;;;;;;18.00;17.00;;;;;-143.90;100.00;75341.75;4966866;28;102334;-76
2023/11/20 00:45:28;;;;;;;;;20.00;19.25;;;;;-143.90;100.00;75345.88;4964577;28;102202;-75
2023/11/20 00:47:54;;;;;;;;;23.50;20.25;;;;;-143.90;100.00;75354.16;4968460;28;102103;-75
2023/11/20 00:50:21;;;;;;;;;24.75;21.75;;;;;-143.90;100.00;75366.56;4966221;28;104189;-76
2023/11/20 00:52:48;;;;;;;;;17.00;15.00;;;;;-143.90;100.00;75366.56;4961682;28;102406;-75
2023/11/20 00:55:15;;;;;;;;;23.50;20.75;;;;;-143.90;100.00;75364.50;4966491;28;102065;-76
2023/11/20 00:57:41;;;;;;;;;19.00;17.25;;;;;-143.90;100.00;75360.34;4968978;28;102095;-75
2023/11/20 01:00:11;;;;;;;;;18.00;17.75;;;;;-143.90;100.00;75360.34;4966612;28;104325;-76
2023/11/20 01:02:38;;;;;;;;;23.25;18.00;;;;;-143.90;100.00;75347.94;4967360;28;102343;-75
2023/11/20 01:05:05;;;;;;;;;22.00;18.00;;;;;-143.90;100.00;75350.03;4966524;28;102160;-76
2023/11/20 01:07:34;;;;;;;;;23.75;20.75;;;;;-143.90;100.00;75345.88;4968386;28;101991;-76
2023/11/20 01:10:00;;;;;;;;;19.50;17.25;;;;;-143.90;100.00;75345.88;4966021;28;103937;-77
2023/11/20 01:12:27;;;;;;;;;17.25;16.25;;;;;-143.90;100.00;75337.63;4966562;28;102221;-76
2023/11/20 01:14:54;;;;;;;;;22.00;16.50;;;;;-143.90;100.00;75345.88;4965841;28;102471;-76
2023/11/20 01:17:21;;;;;;;;;15.00;14.75;;;;;-143.90;100.00;75331.41;4965362;28;102749;-76
2023/11/20 01:19:47;;;;;;;;;16.75;15.75;;;;;-143.90;100.00;75327.28;4965104;28;104149;-76
2023/11/20 01:22:14;;;;;;;;;12.50;12.50;;;;;-143.90;100.00;75325.22;4963907;28;102202;-76
2023/11/20 01:24:41;;;;;;;;;12.75;12.00;;;;;-143.90;100.00;75325.22;4964320;28;103141;-76
2023/11/20 01:27:07;;;;;;;;;17.50;16.00;;;;;-143.90;100.00;75325.22;4964851;28;102643;-77
2023/11/20 01:29:34;;;;;;;;;16.75;12.00;;;;;-143.90;100.00;75319.00;4966000;28;103758;-76
2023/11/20 01:32:01;;;;;;;;;13.00;12.00;;;;;-143.90;100.00;75312.81;4971704;28;102318;-76
2023/11/20 01:34:27;;;;;;;;;16.50;15.50;;;;;-143.90;100.00;75304.53;4969551;28;102484;-75
2023/11/20 01:36:54;;;;;;;;;16.50;15.00;;;;;-143.90;100.00;75314.88;4963862;28;102162;-75
2023/11/20 01:39:21;;;;;;;;;16.25;16.00;;;;;-143.90;100.00;75316.94;4963793;28;103877;-75
2023/11/20 01:41:47;;;;;;;;;16.75;12.25;;;;;-143.90;100.00;75308.66;4964452;28;102424;-76
2023/11/20 01:44:14;;;;;;;;;11.75;11.00;;;;;-143.90;100.00;75308.66;4965100;28;102070;-77
2023/11/20 01:46:41;;;;;;;;;11.75;9.25;;;;;-143.90;100.00;75314.88;4965315;28;102590;-76
2023/11/20 01:49:10;;;;;;;;;12.50;11.00;;;;;-143.90;100.00;75308.66;4962889;28;103915;-77
2023/11/20 01:51:37;;;;;;;;;12.25;10.00;;;;;-143.90;100.00;75312.81;4965262;28;102881;-76
2023/11/20 01:54:04;;;;;;;;;12.50;10.75;;;;;-143.90;100.00;75314.88;4965634;28;102191;-77
2023/11/20 01:56:32;;;;;;;;;11.25;9.50;;;;;-143.90;100.00;75308.66;4966917;28;101958;-77
2023/11/20 01:59:01;;;;;;;;;8.00;7.50;;;;;-143.90;100.00;75310.75;4962594;28;104207;-77
2023/11/20 02:01:28;;;;;;;;;11.75;11.25;;;;;-143.90;100.00;75321.06;4964469;28;102227;-76
2023/11/20 02:03:59;;;;;;;;;10.00;8.00;;;;;-143.90;100.00;75316.94;4964713;28;101920;-76
2023/11/20 02:06:26;;;;;;;;;12.00;11.00;;;;;-143.90;100.00;75312.81;4963593;28;102219;-76
2023/11/20 02:08:53;;;;;;;;;10.50;7.50;;;;;-143.90;100.00;75319.00;4965333;28;104090;-76
2023/11/20 02:11:21;;;;;;;;;10.50;9.50;;;;;-143.90;100.00;75316.94;4963316;28;102148;-74
2023/11/20 02:13:52;;;;;;;;;10.75;7.25;;;;;-143.90;100.00;75308.66;4964805;28;102368;-75
2023/11/20 02:16:18;;;;;;;;;5.50;3.75;;;;;-143.90;100.00;75310.75;4965497;28;102555;-75
2023/11/20 02:18:45;;;;;;;;;7.00;6.50;;;;;-143.90;100.00;75304.53;4963382;28;104071;-76
2023/11/20 02:21:12;;;;;;;;;11.00;8.00;;;;;-143.90;100.00;75304.53;4964882;28;102706;-77
2023/11/20 02:23:38;;;;;;;;;11.00;7.00;;;;;-143.90;100.00;75306.59;4964039;28;102159;-77
2023/11/20 02:26:27;;;;;;;;;11.25;7.75;;;;;-143.90;100.00;75302.47;4966086;28;102389;-76
2023/11/20 02:29:08;;;;;;;;;8.00;7.00;;;;;-143.90;100.00;75302.47;4964348;28;104289;-76
2023/11/20 02:31:35;;;;;;;;;11.00;7.50;;;;;-143.90;100.00;75306.59;4961335;28;102340;-77
2023/11/20 02:34:02;;;;;;;;;6.25;5.50;;;;;-143.90;100.00;75314.88;4964470;28;102246;-76
2023/11/20 02:36:29;;;;;;;;;8.00;7.50;;;;;-143.90;100.00;75321.06;4965556;28;101886;-77
2023/11/20 02:38:56;;;;;;;;;10.75;8.00;;;;;-143.90;100.00;75329.34;4964800;28;104251;-77
2023/11/20 02:41:23;;;;;;;;;12.75;8.00;;;;;-143.90;100.00;75329.34;4965766;28;101964;-77
2023/11/20 02:43:50;;;;;;;;;7.75;6.75;;;;;-143.90;100.00;75329.34;4964432;28;102211;-76
2023/11/20 02:46:18;;;;;;;;;10.50;7.00;;;;;-143.90;100.00;75329.34;4963975;28;102009;-77
2023/11/20 02:48:44;;;;;;;;;8.25;8.00;;;;;-143.90;100.00;75325.22;4964586;28;103634;-76
2023/11/20 02:51:11;;;;;;;;;9.50;6.75;;;;;-143.90;100.00;75325.22;4964995;28;102477;-76
2023/11/20 02:53:38;;;;;;;;;6.50;5.50;;;;;-143.90;100.00;75323.16;4964920;28;102280;-77
2023/11/20 02:56:05;;;;;;;;;15.25;11.25;;;;;-143.90;100.00;75325.22;4966718;28;101953;-77
2023/11/20 02:58:31;;;;;;;;;8.50;8.50;;;;;-143.90;100.00;75319.00;4963529;28;104329;-77
2023/11/20 03:00:58;;;;;;;;;10.50;9.75;;;;;-143.90;100.00;75312.81;4964804;28;102332;-78
2023/11/20 03:03:25;;;;;;;;;7.75;7.00;;;;;-143.90;100.00;75316.94;4963415;28;102180;-76
2023/11/20 03:05:52;;;;;;;;;15.75;12.75;;;;;-143.90;100.00;75314.88;4964643;28;102107;-77
2023/11/20 03:08:19;;;;;;;;;11.50;10.75;;;;;-143.90;100.00;75306.59;4964055;28;104122;-78
2023/11/20 03:10:45;;;;;;;;;17.00;12.00;;;;;-143.90;100.00;75304.53;4964920;28;102027;-76
2023/11/20 03:13:13;;;;;;;;;16.00;13.00;;;;;-143.90;100.00;75304.53;4964794;28;102149;-77
2023/11/20 03:15:40;;;;;;;;;12.00;12.00;;;;;-143.90;100.00;75296.25;4962325;28;102780;-76
2023/11/20 03:18:07;;;;;;;;;10.00;9.00;;;;;-143.90;100.00;75294.19;4959864;28;104289;-76
2023/11/20 03:20:34;;;;;;;;;16.25;13.00;;;;;-143.90;100.00;75290.06;4969022;28;101921;-76
2023/11/20 03:23:01;;;;;;;;;12.50;11.50;;;;;-143.90;100.00;75283.84;4971333;28;101930;-75
2023/11/20 03:25:27;;;;;;;;;9.75;8.25;;;;;-143.90;100.00;75288.00;4970369;28;102465;-76
2023/11/20 03:27:55;;;;;;;;;18.00;12.50;;;;;-143.90;100.00;75281.78;4966388;28;104315;-76
2023/11/20 03:30:22;;;;;;;;;12.25;11.50;;;;;-143.90;100.00;75277.66;4966320;28;102207;-77
2023/11/20 03:32:49;;;;;;;;;13.75;11.00;;;;;-143.90;100.00;75269.38;4965346;28;102005;-76
2023/11/20 03:35:16;;;;;;;;;11.50;11.00;;;;;-143.90;100.00;75275.59;4966683;28;102002;-75
2023/11/20 03:37:43;;;;;;;;;8.75;8.00;;;;;-143.90;100.00;75271.47;4962788;28;104109;-77
2023/11/20 03:40:11;;;;;;;;;13.00;11.00;;;;;-143.90;100.00;75271.47;4964423;28;102168;-77
2023/11/20 03:42:38;;;;;;;;;17.75;10.00;;;;;-143.90;100.00;75267.31;4963457;28;102278;-76
2023/11/20 03:45:05;;;;;;;;;8.75;6.50;;;;;-143.90;100.00;75269.38;4965844;28;102297;-77
2023/11/20 03:47:32;;;;;;;;;12.25;10.50;;;;;-143.90;100.00;75265.25;4963257;28;104188;-76
2023/11/20 03:49:59;;;;;;;;;13.00;13.00;;;;;-143.90;100.00;75273.53;4964188;28;102959;-78
2023/11/20 03:52:26;;;;;;;;;12.00;12.00;;;;;-143.90;100.00;75267.31;4964402;28;102500;-77
2023/11/20 03:54:53;;;;;;;;;11.00;8.00;;;;;-143.90;100.00;75267.31;4980834;28;102369;-77
2023/11/20 03:57:20;;;;;;;;;13.00;10.50;;;;;-143.90;100.00;75259.06;4963492;28;104028;-77
2023/11/20 03:59:46;;;;;;;;;9.50;8.00;;;;;-143.90;100.00;75254.91;4964131;28;101881;-78
2023/11/20 04:02:16;;;;;;;;;9.25;8.25;;;;;-143.90;100.00;75250.78;4963769;28;102197;-77
2023/11/20 04:04:43;;;;;;;;;9.50;8.00;;;;;-143.90;100.00;75248.72;4965368;28;102519;-77
2023/11/20 04:07:11;;;;;;;;;11.50;10.25;;;;;-143.90;100.00;75250.78;4963940;28;103988;-76
2023/11/20 04:09:38;;;;;;;;;9.25;8.25;;;;;-143.90;100.00;75238.38;4965421;28;102787;-76
2023/11/20 04:12:05;;;;;;;;;16.25;11.50;;;;;-143.90;100.00;75238.38;4963316;28;102275;-77
2023/11/20 04:14:31;;;;;;;;;10.75;8.75;;;;;-143.90;100.00;75230.09;4966021;28;102446;-77
2023/11/20 04:16:58;;;;;;;;;13.75;11.50;;;;;-143.90;100.00;75228.03;4961758;28;104126;-76
2023/11/20 04:19:25;;;;;;;;;3.00;2.25;;;;;-143.90;100.00;75225.97;4964182;28;102241;-76
2023/11/20 04:21:52;;;;;;;;;11.50;10.00;;;;;-143.90;100.00;75217.69;4964661;28;102287;-78
2023/11/20 04:24:19;;;;;;;;;9.00;9.00;;;;;-143.90;100.00;75217.69;4964083;28;102166;-78
2023/11/20 04:26:45;;;;;;;;;12.00;9.25;;;;;-143.90;100.00;75213.56;4964304;28;104014;-77
2023/11/20 04:29:13;;;;;;;;;9.00;7.25;;;;;-143.90;100.00;75215.63;4964116;28;102333;-77
2023/11/20 04:31:40;;;;;;;;;15.75;12.00;;;;;-143.90;100.00;75221.84;4962743;28;102315;-75
2023/11/20 04:34:07;;;;;;;;;18.25;13.50;;;;;-143.90;100.00;75219.78;4962624;28;102080;-76
2023/11/20 04:36:33;;;;;;;;;13.25;10.00;;;;;-143.90;100.00;75221.84;4961050;28;104150;-75
2023/11/20 04:39:00;;;;;;;;;13.00;12.00;;;;;-143.90;100.00;75217.69;4963259;28;102360;-77
2023/11/20 04:41:27;;;;;;;;;10.75;8.00;;;;;-143.90;100.00;75217.69;4959908;28;102807;-76
2023/11/20 04:43:53;;;;;;;;;11.50;9.25;;;;;-143.90;100.00;75207.38;4963354;28;102467;-76
2023/11/20 04:46:20;;;;;;;;;11.75;11.75;;;;;-143.90;100.00;75213.56;4960672;28;104211;-76
2023/11/20 04:48:46;;;;;;;;;8.50;7.00;;;;;-143.90;100.00;75213.56;4960697;28;102589;-77
2023/11/20 04:51:20;;;;;;;;;9.50;8.00;;;;;-143.90;100.00;75209.44;4961296;28;103010;-76
2023/11/20 04:53:48;;;;;;;;;16.75;12.00;;;;;-143.90;100.00;75207.38;4959804;28;102387;-77
2023/11/20 04:56:15;;;;;;;;;11.00;9.00;;;;;-143.90;100.00;75201.16;4956703;28;104530;-76
2023/11/20 04:58:44;;;;;;;;;8.75;8.75;;;;;-143.90;100.00;75201.16;4957697;28;102140;-74
2023/11/20 05:01:11;;;;;;;;;9.75;9.25;;;;;-143.90;100.00;75201.16;4959907;28;102227;-76
2023/11/20 05:03:38;;;;;;;;;9.00;8.25;;;;;-143.90;100.00;75197.03;4965641;28;102133;-75
2023/11/20 05:06:09;;;;;;;;;12.75;11.75;;;;;-143.90;100.00;75203.22;4961936;28;104057;-75
2023/11/20 05:08:36;;;;;;;;;11.25;10.00;;;;;-143.90;100.00;75194.97;4962414;28;102110;-75
2023/11/20 05:11:03;;;;;;;;;6.50;6.50;;;;;-143.90;100.00;75194.97;4962691;28;102332;-75
2023/11/20 05:13:30;;;;;;;;;13.50;10.00;;;;;-143.90;100.00;75199.09;4965775;28;102804;-75
2023/11/20 05:15:57;;;;;;;;;13.00;11.00;;;;;-143.90;100.00;75192.91;4965267;28;104399;-75
2023/11/20 05:18:24;;;;;;;;;9.00;8.75;;;;;-143.90;100.00;75184.63;4961066;28;102582;-75
2023/11/20 05:20:51;;;;;;;;;11.00;8.00;;;;;-143.90;100.00;75180.50;4963691;28;102258;-75
2023/11/20 05:23:17;;;;;;;;;6.25;6.25;;;;;-143.90;100.00;75174.28;4965622;28;102519;-75
2023/11/20 05:25:44;;;;;;;;;7.75;6.50;;;;;-143.90;100.00;75168.09;4963661;28;104149;-74
2023/11/20 05:28:10;;;;;;;;;8.00;6.50;;;;;-143.90;100.00;75172.22;4963636;28;102340;-75
2023/11/20 05:30:38;;;;;;;;;13.75;9.00;;;;;-143.90;100.00;75170.16;4964320;28;102490;-75
2023/11/20 05:33:05;;;;;;;;;12.00;9.00;;;;;-143.90;100.00;75170.16;4970218;28;102007;-75
2023/11/20 05:35:33;;;;;;;;;20.75;19.50;;;;;-143.90;100.00;75174.28;4970860;28;104273;-75
2023/11/20 05:37:59;;;;;;;;;59.00;39.25;;;;;-143.90;100.00;75174.28;4965771;28;102009;-76
2023/11/20 05:40:27;;;;;;;;;57.75;43.00;;;;;-143.90;100.00;75172.22;4964344;28;102489;-78
2023/11/20 05:42:53;;;;;;;;;59.75;46.00;;;;;-143.90;100.00;75174.28;4963488;28;102221;-76
2023/11/20 05:45:20;;;;;;;;;66.00;44.00;;;;;-143.90;100.00;75172.22;4963980;28;104220;-75
2023/11/20 05:47:46;;;;;;;;;62.75;45.75;;;;;-143.90;100.00;75172.22;4965204;28;102637;-76
2023/11/20 05:50:13;;;;;;;;;57.75;44.00;;;;;-143.90;100.00;75176.34;4966379;28;102184;-76
2023/11/20 05:52:39;;;;;;;;;56.00;41.50;;;;;-143.90;100.00;75168.09;4967549;28;102397;-78
2023/11/20 05:55:07;;;;;;;;;55.50;39.25;;;;;-143.90;100.00;75168.09;4960916;28;104083;-75
2023/11/20 05:57:34;;;;;;;;;47.25;37.75;;;;;-143.90;100.00;75180.50;4963111;28;102639;-76
2023/11/20 06:00:01;;;;;;;;;37.25;28.50;;;;;-143.90;100.00;75170.16;4963292;28;102433;-76
2023/11/20 06:02:27;;;;;;;;;42.75;36.50;;;;;-143.90;100.00;75172.22;4965233;28;102555;-75
2023/11/20 06:04:54;;;;;;;;;34.25;27.00;;;;;-143.90;100.00;75172.22;4963386;28;106318;-77
2023/11/20 06:07:20;;;;;;;;;42.00;33.75;;;;;-143.90;100.00;75168.09;4964555;28;102356;-76
2023/11/20 06:09:47;;;;;;;;;50.00;40.25;;;;;-143.90;100.00;75157.75;4965626;28;102330;-76
2023/11/20 06:12:13;;;;;;;;;42.00;35.75;;;;;-143.90;100.00;75153.63;4965665;28;102420;-75
2023/11/20 06:14:41;;;;;;;;;36.75;29.75;;;;;-143.90;100.00;75159.81;4960998;28;104072;-75
2023/11/20 06:17:08;;;;;;;;;36.50;29.25;;;;;-143.90;100.00;75166.03;4966870;28;102846;-77
2023/11/20 06:19:35;;;;;;;;;30.25;23.00;;;;;-143.90;100.00;75163.94;4964185;28;103195;-76
2023/11/20 06:22:01;;;;;;;;;27.00;23.00;;;;;-143.90;100.00;75163.94;4982506;28;102451;-77
2023/11/20 06:24:28;;;;;;;;;33.50;29.00;;;;;-143.90;100.00;75161.88;4965177;28;103954;-75
2023/11/20 06:26:55;;;;;;;;;30.25;25.50;;;;;-143.90;100.00;75159.81;4965651;28;102246;-75
2023/11/20 06:29:22;;;;;;;;;25.00;23.25;;;;;-143.90;100.00;75159.81;4965518;28;102169;-76
2023/11/20 06:31:48;;;;;;;;;27.50;22.25;;;;;-143.90;100.00;75155.69;4966582;28;102347;-75
2023/11/20 06:34:15;;;;;;;;;26.00;24.00;;;;;-143.90;100.00;75155.69;4963623;28;104202;-74
2023/11/20 06:36:42;;;;;;;;;20.00;18.25;;;;;-143.90;100.00;75166.03;4963036;28;102464;-75
2023/11/20 06:39:09;;;;;;;;;24.00;23.00;;;;;-143.90;100.00;75159.81;4962348;28;101978;-77
2023/11/20 06:41:37;;;;;;;;;22.00;18.75;;;;;-143.90;100.00;75151.53;4966923;28;102391;-76
2023/11/20 06:44:05;;;;;;;;;18.00;17.00;;;;;-143.90;100.00;75143.28;4964075;28;104136;-77
2023/11/20 06:46:31;;;;;;;;;17.25;16.75;;;;;-143.90;100.00;75143.28;4965782;28;102164;-76
2023/11/20 06:48:58;;;;;;;;;16.00;13.50;;;;;-143.90;100.00;75141.22;4964262;28;102969;-75
2023/11/20 06:51:25;;;;;;;;;20.75;14.50;;;;;-143.90;100.00;75135.00;4966285;28;102246;-77
2023/11/20 06:53:51;;;;;;;;;13.50;13.00;;;;;-143.90;100.00;75135.00;4965788;28;104092;-77
2023/11/20 06:56:19;;;;;;;;;18.00;17.75;;;;;-143.90;100.00;75130.88;4966035;28;101975;-76
2023/11/20 06:58:46;;;;;;;;;22.00;17.75;;;;;-143.90;100.00;75132.94;4960196;28;102454;-77
2023/11/20 07:01:14;;;;;;;;;22.25;18.50;;;;;-143.90;100.00;75135.00;4964198;28;102468;-77
2023/11/20 07:03:44;;;;;;;;;19.25;18.00;;;;;-143.90;100.00;75135.00;4958692;28;103997;-74
2023/11/20 07:06:17;;;;;;;;;20.50;18.25;;;;;-143.90;100.00;75135.00;4958510;28;102718;-74
2023/11/20 07:08:47;;;;;;;;;20.00;18.00;;;;;-143.90;100.00;75130.88;4966100;28;102190;-75
2023/11/20 07:11:14;;;;;;;;;21.50;17.00;;;;;-143.90;100.00;75128.81;4966458;28;102446;-75
2023/11/20 07:13:41;;;;;;;;;23.25;18.00;;;;;-143.90;100.00;75135.00;4964190;28;104016;-77
2023/11/20 07:16:08;;;;;;;;;30.50;24.00;;;;;-143.90;100.00;75135.00;4965537;28;102370;-74
2023/11/20 07:18:35;;;;;;;;;21.00;19.25;;;;;-143.90;100.00;75130.88;4963508;28;102143;-76
2023/11/20 07:21:02;;;;;;;;;24.50;19.00;;;;;-143.90;100.00;75122.59;4966354;28;102671;-74
2023/11/20 07:23:29;;;;;;;;;21.50;16.00;;;;;-143.90;100.00;75132.94;4962590;28;104241;-76
2023/11/20 07:25:55;;;;;;;;;22.75;18.75;;;;;-143.90;100.00;75126.75;4965586;28;102718;-74
2023/11/20 07:28:22;;;;;;;;;29.25;24.75;;;;;-143.90;100.00;75128.81;4966281;28;102481;-74
2023/11/20 07:30:49;;;;;;;;;24.50;21.25;;;;;-143.90;100.00;75132.94;4966086;28;102322;-77
2023/11/20 07:33:15;;;;;;;;;20.25;17.25;;;;;-143.90;100.00;75126.75;4964176;28;103846;-74
2023/11/20 07:35:42;;;;;;;;;19.75;18.00;;;;;-143.90;100.00;75124.66;4964106;28;102121;-75
2023/11/20 07:38:09;;;;;;;;;32.00;24.00;;;;;-143.90;100.00;75130.88;4970144;28;102351;-77
2023/11/20 07:40:36;;;;;;;;;25.25;21.50;;;;;-143.90;100.00;75126.75;4973631;28;102310;-75
2023/11/20 07:43:03;;;;;;;;;23.75;19.00;;;;;-143.90;100.00;75122.59;4971628;28;103841;-76
2023/11/20 07:45:29;;;;;;;;;27.75;21.00;;;;;-143.90;100.00;75118.47;4965779;28;102252;-77
2023/11/20 07:47:56;;;;;;;;;27.50;19.50;;;;;-143.90;100.00;75118.47;4965308;28;102252;-77
2023/11/20 07:50:24;;;;;;;;;22.75;19.75;;;;;-143.90;100.00;75122.59;4964840;28;103442;-76
2023/11/20 07:52:51;;;;;;;;;25.50;21.50;;;;;-143.90;100.00;75108.13;4958806;28;103686;-75
2023/11/20 07:55:17;;;;;;;;;29.00;22.75;;;;;-143.90;100.00;75118.47;4964896;28;102242;-76
2023/11/20 07:57:44;;;;;;;;;26.25;23.50;;;;;-143.90;100.00;75106.06;4964803;28;102675;-76
2023/11/20 08:00:11;;;;;;;;;27.00;25.00;;;;;-143.90;100.00;75101.94;4962168;28;102521;-76
2023/11/20 08:02:39;;;;;;;;;25.75;20.00;;;;;-143.90;100.00;75101.94;4964342;28;104092;-75
2023/11/20 08:05:08;;;;;;;;;24.75;19.50;;;;;-143.90;100.00;75093.66;4962416;28;102356;-77
2023/11/20 08:07:36;;;;;;;;;32.50;28.25;;;;;-143.90;100.00;75116.41;4965441;28;102533;-77
2023/11/20 08:10:05;;;;;;;;;27.25;23.25;;;;;-143.90;100.00;75106.06;4965692;28;102296;-77
2023/11/20 08:12:33;;;;;;;;;26.00;23.25;;;;;-143.90;100.00;75101.94;4963619;28;104109;-76
2023/11/20 08:15:00;;;;;;;;;30.25;24.00;;;;;-143.90;100.00;75097.78;4965076;28;102079;-77
2023/11/20 08:17:26;;;;;;;;;29.25;19.50;;;;;-143.90;100.00;75085.38;4965343;28;102241;-76
2023/11/20 08:19:53;;;;;;;;;28.50;20.25;;;;;-143.90;100.00;75097.78;4965098;28;102330;-76
2023/11/20 08:22:20;;;;;;;;;28.00;22.50;;;;;-143.90;100.00;75091.59;4961047;28;104065;-76
2023/11/20 08:24:46;;;;;;;;;27.50;23.00;;;;;-143.90;100.00;75095.72;4964709;28;102344;-76
2023/11/20 08:27:13;;;;;;;;;24.25;22.50;;;;;-143.90;100.00;75091.59;4967210;28;102089;-77
2023/11/20 08:29:40;;;;;;;;;24.50;23.00;;;;;-143.90;100.00;75091.59;4968216;28;102215;-77
2023/11/20 08:32:07;;;;;;;;;22.75;19.50;;;;;-143.90;100.00;75079.19;4966637;28;104189;-78
2023/11/20 08:34:34;;;;;;;;;21.00;20.00;;;;;-143.90;100.00;75081.25;4967085;28;102502;-77
2023/11/20 08:37:02;;;;;;;;;25.75;20.75;;;;;-143.90;100.00;75081.25;4969909;28;102022;-75
2023/11/20 08:39:31;;;;;;;;;23.00;19.25;;;;;-143.90;100.00;75075.06;4966705;28;102493;-77
2023/11/20 08:41:59;;;;;;;;;17.50;17.00;;;;;-143.90;100.00;75066.78;4970806;28;104003;-77
2023/11/20 08:44:26;;;;;;;;;22.75;19.00;;;;;-143.90;100.00;75066.78;4969720;28;102236;-75
2023/11/20 08:46:53;;;;;;;;;19.50;16.75;;;;;-143.90;100.00;75062.66;4968490;28;102703;-77
2023/11/20 08:49:20;;;;;;;;;17.00;16.25;;;;;-143.90;100.00;75070.91;4970988;28;102425;-77
2023/11/20 08:51:47;;;;;;;;;21.25;18.25;;;;;-143.90;100.00;75081.25;4968819;28;104141;-76
2023/11/20 08:54:27;;;;;;;;;17.50;17.00;;;;;-143.90;100.00;75077.13;4970203;28;102099;-77
2023/11/20 08:56:54;;;;;;;;;16.50;15.00;;;;;-143.90;100.00;75072.97;4971297;28;102069;-77
2023/11/20 08:59:20;;;;;;;;;24.00;19.25;;;;;-143.90;100.00;75056.44;4969292;28;102387;-77
2023/11/20 09:01:47;;;;;;;;;17.25;16.75;;;;;-143.90;100.00;75056.44;4964526;28;104080;-76
2023/11/20 09:04:15;;;;;;;;;19.25;17.00;;;;;-143.90;100.00;75048.19;4964782;28;102136;-76
2023/11/20 09:06:43;;;;;;;;;12.75;12.00;;;;;-143.90;100.00;75035.78;4965478;28;102107;-76
2023/11/20 09:09:10;;;;;;;;;20.50;18.25;;;;;-143.90;100.00;75035.78;4965426;28;102212;-76
2023/11/20 09:11:38;;;;;;;;;18.00;15.00;;;;;-143.90;100.00;75033.72;4965222;28;103951;-75
2023/11/20 09:14:04;;;;;;;;;23.75;18.50;;;;;-143.90;100.00;75035.78;4967221;28;102042;-77
2023/11/20 09:16:31;;;;;;;;;18.50;14.50;;;;;-143.90;100.00;75015.09;4967539;28;102227;-76
2023/11/20 09:18:58;;;;;;;;;18.75;16.25;;;;;-143.90;100.00;75017.16;4968784;28;102469;-77
2023/11/20 09:21:25;;;;;;;;;14.25;13.00;;;;;-143.90;100.00;75008.91;4966717;28;104024;-76
2023/11/20 09:23:52;;;;;;;;;21.50;16.75;;;;;-143.90;100.00;75013.03;4966337;28;102243;-76
2023/11/20 09:26:19;;;;;;;;;14.75;13.00;;;;;-143.90;100.00;75006.84;4965017;28;102175;-76
2023/11/20 09:28:46;;;;;;;;;15.50;13.00;;;;;-143.90;100.00;75010.97;4968082;28;102294;-77
2023/11/20 09:31:18;;;;;;;;;19.25;18.00;;;;;-143.90;100.00;75002.69;4964399;28;103991;-77
2023/11/20 09:33:45;;;;;;;;;21.25;18.50;;;;;-143.90;100.00;75015.09;4967939;28;102012;-76
2023/11/20 09:36:12;;;;;;;;;27.00;21.50;;;;;-143.90;100.00;75021.31;4965954;28;102846;-76
2023/11/20 09:38:39;;;;;;;;;19.00;17.00;;;;;-143.90;100.00;75010.97;4969383;28;102041;-78
2023/11/20 09:41:07;;;;;;;;;21.25;15.00;;;;;-143.90;100.00;74998.56;4966144;28;104085;-77
2023/11/20 09:43:36;;;;;;;;;18.75;17.50;;;;;-143.90;100.00;75002.69;4966413;28;102194;-77
2023/11/20 09:46:09;;;;;;;;;16.75;14.25;;;;;-143.90;100.00;75010.97;4964793;28;102173;-77
2023/11/20 09:48:38;;;;;;;;;17.50;12.00;;;;;-143.90;100.00;74990.28;4969098;28;102469;-76
2023/11/20 09:51:09;;;;;;;;;19.50;14.00;;;;;-143.90;100.00;74998.56;4962209;28;103799;-76
2023/11/20 09:53:40;;;;;;;;;17.00;15.50;;;;;-143.90;100.00;74994.44;4964921;28;102229;-77
2023/11/20 09:56:10;;;;;;;;;19.75;17.50;;;;;-143.90;100.00;74986.16;4964925;28;102447;-77
2023/11/20 09:58:40;;;;;;;;;20.50;18.50;;;;;-143.90;100.00;74977.88;4966012;28;102410;-77
2023/11/20 10:01:10;;;;;;;;;17.25;15.00;;;;;-143.90;100.00;74975.81;4964786;28;104169;-76
2023/11/20 10:03:39;;;;;;;;;19.25;15.75;;;;;-143.90;100.00;74967.56;4964781;28;102282;-76
2023/11/20 10:06:08;;;;;;;;;16.50;14.75;;;;;-143.90;100.00;74961.34;4963057;28;102831;-77
2023/11/20 10:08:36;;;;;;;;;16.25;14.25;;;;;-143.90;100.00;74944.81;4966759;28;102012;-78
2023/11/20 10:11:04;;;;;;;;;12.25;9.00;;;;;-143.90;100.00;74948.94;4963791;28;103600;-76
2023/11/20 10:13:33;;;;;;;;;12.00;10.50;;;;;-143.90;100.00;74938.59;4964932;28;102317;-78
2023/11/20 10:16:01;;;;;;;;;14.50;12.75;;;;;-143.90;100.00;74932.41;4964510;28;102140;-77
2023/11/20 10:18:28;;;;;;;;;14.00;10.50;;;;;-143.90;100.00;74936.53;4965421;28;102717;-77
2023/11/20 10:20:57;;;;;;;;;17.75;16.50;;;;;-143.90;100.00;74938.59;4962916;28;104026;-77
2023/11/20 10:23:25;;;;;;;;;19.00;15.50;;;;;-143.90;100.00;74944.81;4963879;28;102122;-77
2023/11/20 10:25:52;;;;;;;;;22.25;15.25;;;;;-143.90;100.00;74946.88;4961109;28;103340;-76
2023/11/20 10:28:21;;;;;;;;;17.00;13.25;;;;;-143.90;100.00;74932.41;4960844;28;102290;-76
2023/11/20 10:30:48;;;;;;;;;22.50;16.25;;;;;-143.90;100.00;74944.81;4976315;28;104326;-77
2023/11/20 10:33:20;;;;;;;;;15.50;14.75;;;;;-143.90;100.00;74940.69;4965220;28;102328;-78
2023/11/20 10:35:48;;;;;;;;;13.50;13.00;;;;;-143.90;100.00;74957.22;4963243;28;102176;-75
2023/11/20 10:38:15;;;;;;;;;17.00;14.50;;;;;-143.90;100.00;74953.09;4965159;28;102338;-76
2023/11/20 10:40:44;;;;;;;;;14.75;13.00;;;;;-143.90;100.00;74953.09;4964484;28;104049;-76
2023/11/20 10:43:11;;;;;;;;;14.00;11.25;;;;;-143.90;100.00;74948.94;4964423;28;102203;-79
2023/11/20 10:45:39;;;;;;;;;17.50;16.50;;;;;-143.90;100.00;74944.81;4961741;28;102223;-76
2023/11/20 10:48:09;;;;;;;;;19.50;18.00;;;;;-143.90;100.00;74942.75;4964349;28;102099;-77
2023/11/20 10:50:37;;;;;;;;;16.25;14.00;;;;;-143.90;100.00;74953.09;4958962;28;103159;-76